Weather at Colchester Health Centre Heliport

Public forecast

Using degrees Celsius for public forecast. Weather courtesy of forecast.io.

Closest aviation weather report (METAR) to Colchester Health Centre Heliport

Closest report is Halifax / Stanfield International Airport, 29.4 nm (54.5 km) SSW.

2024/06/18 05:00 (retrieved 28 minutes ago)

CYHZ 180500Z 20010KT 15SM SCT130 BKN170 12/08 A3020 RMK AC3AC2 SLP231

Closest aviation forecast (TAF) to Colchester Health Centre Heliport

Forecast is more than 6 hours old.

Closest forecast is Halifax / CFB Shearwater Heliport, 43.6 nm (80.8 km) S.

2024/06/17 18:15 Ammendment (retrieved 11 hours ago)

TAF AMD TAF AMD CYAW 171913Z 1718/1806 CNL RMK END OF FLY PROGRAM NXT FCST BY 180000Z